sensor_id;sensor_type;location;lat;lon;timestamp;pressure;altitude;pressure_sealevel;temperature;humidity
11413;BME280;5762;43.256;26.960;2023-01-29T00:02:31;99917.48;;;0.37;100.00
11413;BME280;5762;43.256;26.960;2023-01-29T00:05:00;99923.81;;;0.33;100.00
11413;BME280;5762;43.256;26.960;2023-01-29T00:07:29;99926.77;;;0.35;100.00
11413;BME280;5762;43.256;26.960;2023-01-29T00:09:58;99925.98;;;0.37;100.00
11413;BME280;5762;43.256;26.960;2023-01-29T00:12:27;99930.86;;;0.40;100.00
11413;BME280;5762;43.256;26.960;2023-01-29T00:14:56;99938.09;;;0.30;100.00
11413;BME280;5762;43.256;26.960;2023-01-29T00:17:24;99935.53;;;0.35;100.00
11413;BME280;5762;43.256;26.960;2023-01-29T00:19:54;99934.20;;;0.35;100.00
11413;BME280;5762;43.256;26.960;2023-01-29T00:22:22;99944.29;;;0.33;100.00
11413;BME280;5762;43.256;26.960;2023-01-29T00:24:52;99938.48;;;0.36;100.00
11413;BME280;5762;43.256;26.960;2023-01-29T00:27:20;99943.00;;;0.36;100.00
11413;BME280;5762;43.256;26.960;2023-01-29T00:29:49;99943.25;;;0.34;100.00
11413;BME280;5762;43.256;26.960;2023-01-29T00:32:18;99944.00;;;0.32;100.00
11413;BME280;5762;43.256;26.960;2023-01-29T00:34:47;99943.25;;;0.34;100.00
11413;BME280;5762;43.256;26.960;2023-01-29T00:37:16;99947.77;;;0.33;100.00
11413;BME280;5762;43.256;26.960;2023-01-29T00:39:45;99949.32;;;0.32;100.00
11413;BME280;5762;43.256;26.960;2023-01-29T00:42:14;99941.27;;;0.29;100.00
11413;BME280;5762;43.256;26.960;2023-01-29T00:44:59;99942.96;;;0.33;100.00
11413;BME280;5762;43.256;26.960;2023-01-29T00:47:28;99944.84;;;0.35;100.00
11413;BME280;5762;43.256;26.960;2023-01-29T00:50:03;99946.02;;;0.39;100.00
11413;BME280;5762;43.256;26.960;2023-01-29T00:52:31;99945.21;;;0.39;100.00
11413;BME280;5762;43.256;26.960;2023-01-29T00:55:01;99941.51;;;0.40;100.00
11413;BME280;5762;43.256;26.960;2023-01-29T00:57:30;99946.73;;;0.35;100.00
11413;BME280;5762;43.256;26.960;2023-01-29T01:00:00;99948.09;;;0.37;100.00
11413;BME280;5762;43.256;26.960;2023-01-29T01:02:29;99939.14;;;0.41;100.00
11413;BME280;5762;43.256;26.960;2023-01-29T01:05:16;99941.15;;;0.36;100.00
11413;BME280;5762;43.256;26.960;2023-01-29T01:07:46;99943.66;;;0.40;100.00
11413;BME280;5762;43.256;26.960;2023-01-29T01:10:16;99942.19;;;0.35;100.00
11413;BME280;5762;43.256;26.960;2023-01-29T01:12:47;99940.30;;;0.33;100.00
11413;BME280;5762;43.256;26.960;2023-01-29T01:15:17;99934.20;;;0.35;100.00
11413;BME280;5762;43.256;26.960;2023-01-29T01:17:46;99945.14;;;0.36;100.00
11413;BME280;5762;43.256;26.960;2023-01-29T01:20:14;99940.63;;;0.37;100.00
11413;BME280;5762;43.256;26.960;2023-01-29T01:22:42;99952.09;;;0.37;100.00
11413;BME280;5762;43.256;26.960;2023-01-29T01:25:11;99947.70;;;0.31;100.00
11413;BME280;5762;43.256;26.960;2023-01-29T01:27:40;99947.99;;;0.32;100.00
11413;BME280;5762;43.256;26.960;2023-01-29T01:30:10;99957.75;;;0.29;100.00
11413;BME280;5762;43.256;26.960;2023-01-29T01:32:39;99957.75;;;0.29;100.00
11413;BME280;5762;43.256;26.960;2023-01-29T01:35:08;99958.13;;;0.23;100.00
11413;BME280;5762;43.256;26.960;2023-01-29T01:37:37;99956.28;;;0.24;100.00
11413;BME280;5762;43.256;26.960;2023-01-29T01:40:07;99957.63;;;0.15;100.00
11413;BME280;5762;43.256;26.960;2023-01-29T01:42:36;99955.33;;;0.18;100.00
11413;BME280;5762;43.256;26.960;2023-01-29T01:45:06;99955.03;;;0.17;100.00
11413;BME280;5762;43.256;26.960;2023-01-29T01:47:42;99960.66;;;0.18;100.00
11413;BME280;5762;43.256;26.960;2023-01-29T01:50:21;99957.77;;;0.20;100.00
11413;BME280;5762;43.256;26.960;2023-01-29T01:52:52;99957.32;;;0.23;100.00
11413;BME280;5762;43.256;26.960;2023-01-29T01:55:22;99953.63;;;0.24;100.00
11413;BME280;5762;43.256;26.960;2023-01-29T01:57:54;99961.09;;;0.24;100.00
11413;BME280;5762;43.256;26.960;2023-01-29T02:00:21;99951.63;;;0.19;100.00
11413;BME280;5762;43.256;26.960;2023-01-29T02:02:51;99961.31;;;0.23;100.00
11413;BME280;5762;43.256;26.960;2023-01-29T02:05:38;99963.75;;;0.24;100.00
11413;BME280;5762;43.256;26.960;2023-01-29T02:08:25;99973.44;;;0.19;100.00
11413;BME280;5762;43.256;26.960;2023-01-29T02:11:09;99972.11;;;0.19;100.00
11413;BME280;5762;43.256;26.960;2023-01-29T02:13:38;99970.13;;;0.14;100.00
11413;BME280;5762;43.256;26.960;2023-01-29T02:16:07;99974.55;;;0.20;100.00
11413;BME280;5762;43.256;26.960;2023-01-29T02:18:35;99981.50;;;0.21;100.00
11413;BME280;5762;43.256;26.960;2023-01-29T02:23:42;99973.66;;;0.17;100.00
11413;BME280;5762;43.256;26.960;2023-01-29T02:28:52;99981.13;;;0.18;100.00
11413;BME280;5762;43.256;26.960;2023-01-29T02:31:26;99984.61;;;0.09;100.00
11413;BME280;5762;43.256;26.960;2023-01-29T02:36:26;99990.00;;;0.12;100.00
11413;BME280;5762;43.256;26.960;2023-01-29T02:39:16;99994.30;;;0.13;100.00
11413;BME280;5762;43.256;26.960;2023-01-29T02:41:53;99992.66;;;0.12;100.00
11413;BME280;5762;43.256;26.960;2023-01-29T02:47:04;99994.73;;;0.10;100.00
11413;BME280;5762;43.256;26.960;2023-01-29T02:52:03;99996.29;;;0.08;100.00
11413;BME280;5762;43.256;26.960;2023-01-29T02:54:42;99995.03;;;0.11;100.00
11413;BME280;5762;43.256;26.960;2023-01-29T02:57:04;99991.48;;;0.08;100.00
11413;BME280;5762;43.256;26.960;2023-01-29T02:59:36;99994.66;;;0.07;100.00
11413;BME280;5762;43.256;26.960;2023-01-29T03:02:05;100000.50;;;0.07;100.00
11413;BME280;5762;43.256;26.960;2023-01-29T03:04:34;99996.06;;;0.10;100.00
11413;BME280;5762;43.256;26.960;2023-01-29T03:07:04;99999.91;;;0.14;100.00
11413;BME280;5762;43.256;26.960;2023-01-29T03:09:33;99999.47;;;0.17;100.00
11413;BME280;5762;43.256;26.960;2023-01-29T03:14:36;99999.47;;;0.17;100.00
11413;BME280;5762;43.256;26.960;2023-01-29T03:17:01;99998.72;;;0.19;100.00
11413;BME280;5762;43.256;26.960;2023-01-29T03:19:32;100002.78;;;0.21;100.00
11413;BME280;5762;43.256;26.960;2023-01-29T03:22:01;100003.31;;;0.21;100.00
11413;BME280;5762;43.256;26.960;2023-01-29T03:24:40;99996.80;;;0.17;100.00
11413;BME280;5762;43.256;26.960;2023-01-29T03:27:29;100000.05;;;0.19;100.00
11413;BME280;5762;43.256;26.960;2023-01-29T03:30:08;100001.31;;;0.16;100.00
11413;BME280;5762;43.256;26.960;2023-01-29T03:32:54;100000.57;;;0.18;100.00
11413;BME280;5762;43.256;26.960;2023-01-29T03:35:25;100000.42;;;0.13;100.00
11413;BME280;5762;43.256;26.960;2023-01-29T03:38:09;100008.04;;;0.10;100.00
11413;BME280;5762;43.256;26.960;2023-01-29T03:40:35;100000.58;;;0.09;100.00
11413;BME280;5762;43.256;26.960;2023-01-29T03:43:13;100009.22;;;0.05;100.00
11413;BME280;5762;43.256;26.960;2023-01-29T03:48:35;100011.37;;;0.05;100.00
11413;BME280;5762;43.256;26.960;2023-01-29T03:56:12;100015.80;;;0.11;100.00
11413;BME280;5762;43.256;26.960;2023-01-29T03:58:39;100017.20;;;0.14;100.00
11413;BME280;5762;43.256;26.960;2023-01-29T04:03:37;100014.02;;;0.23;100.00
11413;BME280;5762;43.256;26.960;2023-01-29T04:08:51;100013.36;;;0.19;100.00
11413;BME280;5762;43.256;26.960;2023-01-29T04:11:09;100019.42;;;0.17;100.00
11413;BME280;5762;43.256;26.960;2023-01-29T04:13:37;100023.71;;;0.18;100.00
11413;BME280;5762;43.256;26.960;2023-01-29T04:16:08;100026.00;;;0.14;100.00
11413;BME280;5762;43.256;26.960;2023-01-29T04:18:37;100023.34;;;0.14;100.00
11413;BME280;5762;43.256;26.960;2023-01-29T04:21:06;100028.14;;;0.15;100.00
11413;BME280;5762;43.256;26.960;2023-01-29T04:23:34;100028.37;;;0.22;100.00
11413;BME280;5762;43.256;26.960;2023-01-29T04:29:10;100028.96;;;0.15;100.00
11413;BME280;5762;43.256;26.960;2023-01-29T04:31:30;100026.89;;;0.08;100.00
11413;BME280;5762;43.256;26.960;2023-01-29T04:34:02;100027.11;;;0.16;100.00
11413;BME280;5762;43.256;26.960;2023-01-29T04:36:40;100031.11;;;0.16;100.00
11413;BME280;5762;43.256;26.960;2023-01-29T04:39:17;100031.47;;;0.19;100.00
11413;BME280;5762;43.256;26.960;2023-01-29T04:41:56;100038.42;;;0.20;100.00
11413;BME280;5762;43.256;26.960;2023-01-29T04:44:41;100038.34;;;0.27;100.00
11413;BME280;5762;43.256;26.960;2023-01-29T04:47:17;100038.49;;;0.32;100.00
11413;BME280;5762;43.256;26.960;2023-01-29T04:49:45;100036.17;;;0.36;100.00
11413;BME280;5762;43.256;26.960;2023-01-29T04:57:33;100033.95;;;0.42;100.00
11413;BME280;5762;43.256;26.960;2023-01-29T05:00:00;100034.76;;;0.42;100.00
11413;BME280;5762;43.256;26.960;2023-01-29T05:02:28;100038.53;;;0.44;100.00
11413;BME280;5762;43.256;26.960;2023-01-29T05:04:58;100036.77;;;0.38;100.00
11413;BME280;5762;43.256;26.960;2023-01-29T05:07:27;100041.75;;;0.34;100.00
11413;BME280;5762;43.256;26.960;2023-01-29T05:09:59;100039.38;;;0.26;100.00
11413;BME280;5762;43.256;26.960;2023-01-29T05:12:28;100047.14;;;0.27;100.00
11413;BME280;5762;43.256;26.960;2023-01-29T05:14:59;100042.63;;;0.28;100.00
11413;BME280;5762;43.256;26.960;2023-01-29T05:17:27;100046.77;;;0.24;100.00
11413;BME280;5762;43.256;26.960;2023-01-29T05:19:56;100047.30;;;0.23;100.00
11413;BME280;5762;43.256;26.960;2023-01-29T05:22:25;100050.40;;;0.29;100.00
11413;BME280;5762;43.256;26.960;2023-01-29T05:24:54;100053.13;;;0.32;100.00
11413;BME280;5762;43.256;26.960;2023-01-29T05:27:26;100052.62;;;0.32;100.00
11413;BME280;5762;43.256;26.960;2023-01-29T05:30:09;100051.33;;;0.35;100.00
11413;BME280;5762;43.256;26.960;2023-01-29T05:32:38;100063.27;;;0.32;100.00
11413;BME280;5762;43.256;26.960;2023-01-29T05:35:06;100062.05;;;0.38;100.00
11413;BME280;5762;43.256;26.960;2023-01-29T05:37:34;100063.48;;;0.31;100.00
11413;BME280;5762;43.256;26.960;2023-01-29T05:40:02;100066.78;;;0.36;100.00
11413;BME280;5762;43.256;26.960;2023-01-29T05:42:32;100070.06;;;0.28;100.00
11413;BME280;5762;43.256;26.960;2023-01-29T05:45:01;100064.45;;;0.27;100.00
11413;BME280;5762;43.256;26.960;2023-01-29T05:47:29;100069.91;;;0.23;100.00
11413;BME280;5762;43.256;26.960;2023-01-29T05:49:58;100076.80;;;0.22;100.00
11413;BME280;5762;43.256;26.960;2023-01-29T05:52:27;100076.50;;;0.30;100.00
11413;BME280;5762;43.256;26.960;2023-01-29T05:54:55;100076.34;;;0.25;100.00
11413;BME280;5762;43.256;26.960;2023-01-29T05:57:24;100080.34;;;0.25;100.00
11413;BME280;5762;43.256;26.960;2023-01-29T05:59:52;100081.08;;;0.23;100.00
11413;BME280;5762;43.256;26.960;2023-01-29T06:02:21;100082.70;;;0.24;100.00
11413;BME280;5762;43.256;26.960;2023-01-29T06:04:50;100086.25;;;0.18;100.00
11413;BME280;5762;43.256;26.960;2023-01-29T06:07:19;100096.02;;;0.24;100.00
11413;BME280;5762;43.256;26.960;2023-01-29T06:09:48;100096.75;;;0.22;100.00
11413;BME280;5762;43.256;26.960;2023-01-29T06:12:16;100097.05;;;0.23;100.00
11413;BME280;5762;43.256;26.960;2023-01-29T06:14:44;100106.07;;;0.22;100.00
11413;BME280;5762;43.256;26.960;2023-01-29T06:17:13;100103.84;;;0.19;100.00
11413;BME280;5762;43.256;26.960;2023-01-29T06:19:42;100113.69;;;0.27;100.00
11413;BME280;5762;43.256;26.960;2023-01-29T06:22:10;100111.25;;;0.26;100.00
11413;BME280;5762;43.256;26.960;2023-01-29T06:24:39;100108.88;;;0.18;100.00
11413;BME280;5762;43.256;26.960;2023-01-29T06:27:08;100117.76;;;0.30;100.00
11413;BME280;5762;43.256;26.960;2023-01-29T06:29:37;100120.80;;;0.33;100.00
11413;BME280;5762;43.256;26.960;2023-01-29T06:32:05;100126.75;;;0.38;100.00
11413;BME280;5762;43.256;26.960;2023-01-29T06:34:34;100125.86;;;0.35;100.00
11413;BME280;5762;43.256;26.960;2023-01-29T06:37:03;100124.83;;;0.36;100.00
11413;BME280;5762;43.256;26.960;2023-01-29T06:39:31;100132.02;;;0.45;100.00
11413;BME280;5762;43.256;26.960;2023-01-29T06:41:59;100129.72;;;0.39;100.00
11413;BME280;5762;43.256;26.960;2023-01-29T06:44:28;100128.98;;;0.41;100.00
11413;BME280;5762;43.256;26.960;2023-01-29T06:46:57;100135.48;;;0.45;100.00
11413;BME280;5762;43.256;26.960;2023-01-29T06:49:26;100134.59;;;0.42;100.00
11413;BME280;5762;43.256;26.960;2023-01-29T06:51:55;100136.38;;;0.39;100.00
11413;BME280;5762;43.256;26.960;2023-01-29T06:54:24;100144.73;;;0.52;100.00
11413;BME280;5762;43.256;26.960;2023-01-29T06:56:53;100139.04;;;0.48;100.00
11413;BME280;5762;43.256;26.960;2023-01-29T06:59:22;100146.66;;;0.45;100.00
11413;BME280;5762;43.256;26.960;2023-01-29T07:01:50;100149.24;;;0.42;100.00
11413;BME280;5762;43.256;26.960;2023-01-29T07:04:19;100149.61;;;0.46;100.00
11413;BME280;5762;43.256;26.960;2023-01-29T07:06:47;100149.31;;;0.45;100.00
11413;BME280;5762;43.256;26.960;2023-01-29T07:09:16;100153.09;;;0.46;100.00
11413;BME280;5762;43.256;26.960;2023-01-29T07:11:44;100143.33;;;0.40;100.00
11413;BME280;5762;43.256;26.960;2023-01-29T07:14:13;100147.91;;;0.42;100.00
11413;BME280;5762;43.256;26.960;2023-01-29T07:16:42;100154.20;;;0.29;100.00
11413;BME280;5762;43.256;26.960;2023-01-29T07:19:11;100150.20;;;0.39;100.00
11413;BME280;5762;43.256;26.960;2023-01-29T07:21:40;100155.90;;;0.42;100.00
11413;BME280;5762;43.256;26.960;2023-01-29T07:24:08;100159.01;;;0.48;100.00
11413;BME280;5762;43.256;26.960;2023-01-29T07:26:37;100159.09;;;0.51;100.00
11413;BME280;5762;43.256;26.960;2023-01-29T07:29:06;100158.71;;;0.47;100.00
11413;BME280;5762;43.256;26.960;2023-01-29T07:31:34;100154.12;;;0.36;100.00
11413;BME280;5762;43.256;26.960;2023-01-29T07:34:03;100158.56;;;0.51;100.00
11413;BME280;5762;43.256;26.960;2023-01-29T07:36:31;100165.52;;;0.52;100.00
11413;BME280;5762;43.256;26.960;2023-01-29T07:39:00;100168.70;;;0.52;100.00
11413;BME280;5762;43.256;26.960;2023-01-29T07:41:29;100170.25;;;0.50;100.00
11413;BME280;5762;43.256;26.960;2023-01-29T07:43:58;100172.02;;;0.47;100.00
11413;BME280;5762;43.256;26.960;2023-01-29T07:46:27;100177.57;;;0.46;100.00
11413;BME280;5762;43.256;26.960;2023-01-29T07:48:56;100181.48;;;0.43;100.00
11413;BME280;5762;43.256;26.960;2023-01-29T07:51:25;100176.91;;;0.50;100.00
11413;BME280;5762;43.256;26.960;2023-01-29T07:53:54;100187.34;;;0.52;100.00
11413;BME280;5762;43.256;26.960;2023-01-29T07:56:23;100184.30;;;0.48;100.00
11413;BME280;5762;43.256;26.960;2023-01-29T07:58:52;100191.40;;;0.45;100.00
11413;BME280;5762;43.256;26.960;2023-01-29T08:01:21;100188.80;;;0.39;100.00
11413;BME280;5762;43.256;26.960;2023-01-29T08:03:50;100186.89;;;0.46;100.00
11413;BME280;5762;43.256;26.960;2023-01-29T08:06:19;100193.63;;;0.48;100.00
11413;BME280;5762;43.256;26.960;2023-01-29T08:08:48;100184.15;;;0.43;100.00
11413;BME280;5762;43.256;26.960;2023-01-29T08:11:17;100186.52;;;0.42;100.00
11413;BME280;5762;43.256;26.960;2023-01-29T08:13:46;100190.59;;;0.45;100.00
11413;BME280;5762;43.256;26.960;2023-01-29T08:16:15;100189.85;;;0.47;100.00
11413;BME280;5762;43.256;26.960;2023-01-29T08:18:43;100191.11;;;0.44;100.00
11413;BME280;5762;43.256;26.960;2023-01-29T08:21:13;100206.19;;;0.41;100.00
11413;BME280;5762;43.256;26.960;2023-01-29T08:23:42;100203.46;;;0.48;100.00
11413;BME280;5762;43.256;26.960;2023-01-29T08:26:11;100199.25;;;0.49;100.00
11413;BME280;5762;43.256;26.960;2023-01-29T08:28:40;100207.67;;;0.46;100.00
11413;BME280;5762;43.256;26.960;2023-01-29T08:31:13;100207.23;;;0.49;100.00
11413;BME280;5762;43.256;26.960;2023-01-29T08:33:42;100201.84;;;0.56;100.00
11413;BME280;5762;43.256;26.960;2023-01-29T08:36:10;100210.05;;;0.54;100.00
11413;BME280;5762;43.256;26.960;2023-01-29T08:38:39;100214.63;;;0.47;100.00
11413;BME280;5762;43.256;26.960;2023-01-29T08:41:08;100210.77;;;0.43;100.00
11413;BME280;5762;43.256;26.960;2023-01-29T08:43:42;100218.24;;;0.44;100.00
11413;BME280;5762;43.256;26.960;2023-01-29T08:46:07;100220.98;;;0.46;100.00
11413;BME280;5762;43.256;26.960;2023-01-29T08:48:36;100220.77;;;0.48;100.00
11413;BME280;5762;43.256;26.960;2023-01-29T08:51:05;100221.88;;;0.49;100.00
11413;BME280;5762;43.256;26.960;2023-01-29T08:53:33;100221.45;;;0.61;100.00
11413;BME280;5762;43.256;26.960;2023-01-29T08:56:01;100218.50;;;0.60;100.00
11413;BME280;5762;43.256;26.960;2023-01-29T08:58:30;100221.75;;;0.62;100.00
11413;BME280;5762;43.256;26.960;2023-01-29T09:01:10;100221.16;;;0.60;100.00
11413;BME280;5762;43.256;26.960;2023-01-29T09:03:34;100218.05;;;0.63;100.00
11413;BME280;5762;43.256;26.960;2023-01-29T09:06:04;100218.43;;;0.67;100.00
11413;BME280;5762;43.256;26.960;2023-01-29T09:08:32;100218.62;;;0.75;100.00
11413;BME280;5762;43.256;26.960;2023-01-29T09:11:02;100220.55;;;0.77;100.00
11413;BME280;5762;43.256;26.960;2023-01-29T09:13:30;100221.00;;;0.83;100.00
11413;BME280;5762;43.256;26.960;2023-01-29T09:16:00;100217.23;;;0.81;100.00
11413;BME280;5762;43.256;26.960;2023-01-29T09:18:29;100215.30;;;0.79;100.00
11413;BME280;5762;43.256;26.960;2023-01-29T09:20:57;100217.89;;;0.77;100.00
11413;BME280;5762;43.256;26.960;2023-01-29T09:23:27;100216.19;;;0.82;100.00
11413;BME280;5762;43.256;26.960;2023-01-29T09:25:56;100208.27;;;0.85;100.00
11413;BME280;5762;43.256;26.960;2023-01-29T09:28:25;100208.20;;;0.91;100.00
11413;BME280;5762;43.256;26.960;2023-01-29T09:30:54;100204.13;;;0.89;100.00
11413;BME280;5762;43.256;26.960;2023-01-29T09:33:23;100210.79;;;0.89;100.00
11413;BME280;5762;43.256;26.960;2023-01-29T09:35:52;100208.72;;;0.91;100.00
11413;BME280;5762;43.256;26.960;2023-01-29T09:38:21;100203.61;;;0.89;100.00
11413;BME280;5762;43.256;26.960;2023-01-29T09:41:02;100202.65;;;0.93;100.00
11413;BME280;5762;43.256;26.960;2023-01-29T09:43:48;100201.61;;;1.03;100.00
11413;BME280;5762;43.256;26.960;2023-01-29T09:48:55;100198.36;;;0.92;100.00
11413;BME280;5762;43.256;26.960;2023-01-29T09:51:24;100199.09;;;0.90;100.00
11413;BME280;5762;43.256;26.960;2023-01-29T09:53:56;100188.14;;;0.89;100.00
11413;BME280;5762;43.256;26.960;2023-01-29T09:56:22;100190.29;;;0.89;100.00
11413;BME280;5762;43.256;26.960;2023-01-29T09:58:52;100199.39;;;1.00;100.00
11413;BME280;5762;43.256;26.960;2023-01-29T10:04:17;100186.02;;;1.09;100.00
11413;BME280;5762;43.256;26.960;2023-01-29T10:06:45;100186.47;;;1.06;100.00
11413;BME280;5762;43.256;26.960;2023-01-29T10:12:05;100173.89;;;1.04;100.00
11413;BME280;5762;43.256;26.960;2023-01-29T10:22:38;100163.06;;;1.17;100.00
11413;BME280;5762;43.256;26.960;2023-01-29T10:25:05;100152.69;;;1.18;100.00
11413;BME280;5762;43.256;26.960;2023-01-29T10:27:35;100151.50;;;1.23;100.00
11413;BME280;5762;43.256;26.960;2023-01-29T10:30:25;100150.82;;;1.28;100.00
11413;BME280;5762;43.256;26.960;2023-01-29T10:32:37;100146.56;;;1.09;100.00
11413;BME280;5762;43.256;26.960;2023-01-29T10:35:14;100144.17;;;1.19;100.00
11413;BME280;5762;43.256;26.960;2023-01-29T10:37:42;100140.25;;;1.21;100.00
11413;BME280;5762;43.256;26.960;2023-01-29T10:40:19;100146.09;;;1.21;100.00
11413;BME280;5762;43.256;26.960;2023-01-29T10:43:02;100142.19;;;1.14;100.00
11413;BME280;5762;43.256;26.960;2023-01-29T10:45:32;100144.38;;;1.26;100.00
11413;BME280;5762;43.256;26.960;2023-01-29T10:48:06;100137.65;;;1.24;100.00
11413;BME280;5762;43.256;26.960;2023-01-29T10:50:49;100139.20;;;1.22;100.00
11413;BME280;5762;43.256;26.960;2023-01-29T10:59:00;100136.06;;;1.34;100.00
11413;BME280;5762;43.256;26.960;2023-01-29T11:01:24;100134.44;;;1.33;100.00
11413;BME280;5762;43.256;26.960;2023-01-29T11:03:58;100135.86;;;1.27;100.00
11413;BME280;5762;43.256;26.960;2023-01-29T11:06:23;100132.25;;;1.21;100.00
11413;BME280;5762;43.256;26.960;2023-01-29T11:11:30;100127.95;;;1.20;100.00
11413;BME280;5762;43.256;26.960;2023-01-29T11:14:00;100132.18;;;1.19;100.00
11413;BME280;5762;43.256;26.960;2023-01-29T11:16:25;100128.55;;;1.22;100.00
11413;BME280;5762;43.256;26.960;2023-01-29T11:18:58;100123.66;;;1.19;100.00
11413;BME280;5762;43.256;26.960;2023-01-29T11:21:27;100119.44;;;1.21;100.00
11413;BME280;5762;43.256;26.960;2023-01-29T11:24:06;100121.42;;;1.25;100.00
11413;BME280;5762;43.256;26.960;2023-01-29T11:26:36;100117.95;;;1.25;100.00
11413;BME280;5762;43.256;26.960;2023-01-29T11:29:03;100113.30;;;1.20;100.00
11413;BME280;5762;43.256;26.960;2023-01-29T11:31:35;100111.15;;;1.20;100.00
11413;BME280;5762;43.256;26.960;2023-01-29T11:34:05;100103.51;;;1.23;100.00
11413;BME280;5762;43.256;26.960;2023-01-29T11:36:36;100109.27;;;1.29;100.00
11413;BME280;5762;43.256;26.960;2023-01-29T11:44:25;100104.23;;;1.30;100.00
11413;BME280;5762;43.256;26.960;2023-01-29T11:46:50;100094.70;;;1.23;100.00
11413;BME280;5762;43.256;26.960;2023-01-29T11:49:22;100094.05;;;1.18;100.00
11413;BME280;5762;43.256;26.960;2023-01-29T11:51:51;100100.71;;;1.18;100.00
11413;BME280;5762;43.256;26.960;2023-01-29T11:54:20;100090.56;;;1.18;100.00
11413;BME280;5762;43.256;26.960;2023-01-29T11:56:49;100090.86;;;1.19;100.00
11413;BME280;5762;43.256;26.960;2023-01-29T11:59:24;100093.19;;;1.06;100.00
11413;BME280;5762;43.256;26.960;2023-01-29T12:01:47;100094.19;;;1.03;100.00
11413;BME280;5762;43.256;26.960;2023-01-29T12:04:21;100086.20;;;1.03;100.00
11413;BME280;5762;43.256;26.960;2023-01-29T12:06:49;100093.48;;;1.07;100.00
11413;BME280;5762;43.256;26.960;2023-01-29T12:09:20;100091.75;;;1.01;100.00
11413;BME280;5762;43.256;26.960;2023-01-29T12:11:48;100092.61;;;1.04;100.00
11413;BME280;5762;43.256;26.960;2023-01-29T12:17:11;100099.23;;;1.02;100.00
11413;BME280;5762;43.256;26.960;2023-01-29T12:19:41;100095.98;;;0.99;100.00
11413;BME280;5762;43.256;26.960;2023-01-29T12:24:49;100099.75;;;1.01;100.00
11413;BME280;5762;43.256;26.960;2023-01-29T12:27:25;100101.31;;;0.99;100.00
11413;BME280;5762;43.256;26.960;2023-01-29T12:32:33;100103.23;;;1.02;100.00
11413;BME280;5762;43.256;26.960;2023-01-29T12:40:04;100103.33;;;1.07;100.00
11413;BME280;5762;43.256;26.960;2023-01-29T12:42:31;100107.24;;;1.13;100.00
11413;BME280;5762;43.256;26.960;2023-01-29T12:45:01;100106.59;;;1.09;100.00
11413;BME280;5762;43.256;26.960;2023-01-29T12:47:37;100103.60;;;1.17;100.00
11413;BME280;5762;43.256;26.960;2023-01-29T12:52:37;100113.72;;;1.26;100.00
11413;BME280;5762;43.256;26.960;2023-01-29T12:57:46;100105.88;;;1.22;100.00
11413;BME280;5762;43.256;26.960;2023-01-29T13:00:15;100110.24;;;1.26;100.00
11413;BME280;5762;43.256;26.960;2023-01-29T13:07:52;100109.17;;;1.36;100.00
11413;BME280;5762;43.256;26.960;2023-01-29T13:10:22;100111.87;;;1.27;100.00
11413;BME280;5762;43.256;26.960;2023-01-29T13:12:54;100119.86;;;1.27;100.00
11413;BME280;5762;43.256;26.960;2023-01-29T13:15:23;100110.77;;;1.25;100.00
11413;BME280;5762;43.256;26.960;2023-01-29T13:17:56;100105.98;;;1.37;100.00
11413;BME280;5762;43.256;26.960;2023-01-29T13:20:29;100112.84;;;1.23;100.00
11413;BME280;5762;43.256;26.960;2023-01-29T13:22:54;100120.12;;;1.16;100.00
11413;BME280;5762;43.256;26.960;2023-01-29T13:25:23;100111.22;;;1.22;100.00
11413;BME280;5762;43.256;26.960;2023-01-29T13:27:52;100119.50;;;1.23;100.00
11413;BME280;5762;43.256;26.960;2023-01-29T13:30:24;100124.55;;;1.22;100.00
11413;BME280;5762;43.256;26.960;2023-01-29T13:32:53;100123.05;;;1.26;100.00
11413;BME280;5762;43.256;26.960;2023-01-29T13:35:23;100122.76;;;1.25;100.00
11413;BME280;5762;43.256;26.960;2023-01-29T13:37:52;100120.28;;;1.12;100.00
11413;BME280;5762;43.256;26.960;2023-01-29T13:40:25;100113.47;;;1.07;100.00
11413;BME280;5762;43.256;26.960;2023-01-29T13:42:54;100109.84;;;1.11;100.00
11413;BME280;5762;43.256;26.960;2023-01-29T13:45:30;100117.00;;;1.19;100.00
11413;BME280;5762;43.256;26.960;2023-01-29T13:47:52;100112.16;;;1.28;100.00
11413;BME280;5762;43.256;26.960;2023-01-29T13:50:25;100120.61;;;1.25;100.00
11413;BME280;5762;43.256;26.960;2023-01-29T13:52:54;100117.72;;;1.26;100.00
11413;BME280;5762;43.256;26.960;2023-01-29T13:57:59;100125.78;;;1.29;100.00
11413;BME280;5762;43.256;26.960;2023-01-29T14:08:00;100121.80;;;1.41;100.00
11413;BME280;5762;43.256;26.960;2023-01-29T14:10:29;100125.49;;;1.28;100.00
11413;BME280;5762;43.256;26.960;2023-01-29T14:15:40;100132.06;;;1.34;100.00
11413;BME280;5762;43.256;26.960;2023-01-29T14:18:18;100133.27;;;1.29;100.00
11413;BME280;5762;43.256;26.960;2023-01-29T14:23:38;100125.88;;;1.22;100.00
11413;BME280;5762;43.256;26.960;2023-01-29T14:26:26;100124.61;;;1.25;100.00
11413;BME280;5762;43.256;26.960;2023-01-29T14:29:02;100127.34;;;1.27;100.00
11413;BME280;5762;43.256;26.960;2023-01-29T14:34:24;100130.62;;;1.20;100.00
11413;BME280;5762;43.256;26.960;2023-01-29T14:36:53;100137.89;;;1.13;100.00
11413;BME280;5762;43.256;26.960;2023-01-29T14:41:57;100144.42;;;1.08;100.00
11413;BME280;5762;43.256;26.960;2023-01-29T14:47:17;100146.72;;;1.05;100.00
11413;BME280;5762;43.256;26.960;2023-01-29T14:49:56;100148.69;;;0.97;100.00
11413;BME280;5762;43.256;26.960;2023-01-29T14:52:44;100145.87;;;0.92;100.00
11413;BME280;5762;43.256;26.960;2023-01-29T14:55:26;100146.84;;;0.89;100.00
11413;BME280;5762;43.256;26.960;2023-01-29T14:57:55;100153.42;;;0.95;100.00
11413;BME280;5762;43.256;26.960;2023-01-29T15:00:28;100152.77;;;0.91;100.00
11413;BME280;5762;43.256;26.960;2023-01-29T15:02:57;100156.53;;;0.92;100.00
11413;BME280;5762;43.256;26.960;2023-01-29T15:05:26;100160.23;;;0.91;100.00